createdAt,value
2018-05-07T00:01:06.233Z,2.20
2018-05-07T00:03:32.036Z,2.23
2018-05-07T00:05:58.052Z,2.33
2018-05-07T00:08:23.892Z,2.20
2018-05-07T00:10:49.744Z,2.40
2018-05-07T00:13:15.622Z,2.40
2018-05-07T00:15:41.481Z,2.20
2018-05-07T00:18:07.349Z,2.43
2018-05-07T00:20:33.273Z,2.20
2018-05-07T00:22:59.135Z,2.30
2018-05-07T00:25:24.989Z,2.23
2018-05-07T00:27:50.842Z,2.47
2018-05-07T00:30:16.716Z,2.37
2018-05-07T00:32:42.568Z,2.50
2018-05-07T00:35:08.498Z,2.50
2018-05-07T00:37:34.332Z,2.30
2018-05-07T00:40:00.170Z,2.30
2018-05-07T00:42:26.019Z,2.27
2018-05-07T00:44:51.862Z,2.43
2018-05-07T00:47:17.714Z,2.20
2018-05-07T00:49:43.564Z,2.20
2018-05-07T00:52:09.411Z,2.30
2018-05-07T00:54:47.649Z,2.40
2018-05-07T00:57:13.499Z,2.50
2018-05-07T00:59:39.337Z,2.30
2018-05-07T01:02:05.219Z,2.30
2018-05-07T01:04:31.087Z,2.43
2018-05-07T01:06:56.985Z,2.30
2018-05-07T01:09:22.851Z,2.73
2018-05-07T01:11:48.719Z,2.30
2018-05-07T01:14:14.559Z,2.57
2018-05-07T01:16:40.450Z,2.60
2018-05-07T01:19:06.304Z,2.30
2018-05-07T01:21:32.168Z,2.50
2018-05-07T01:23:58.059Z,2.50
2018-05-07T01:26:23.939Z,2.77
2018-05-07T01:28:49.788Z,2.57
2018-05-07T01:31:15.647Z,2.50
2018-05-07T01:33:41.511Z,2.80
2018-05-07T01:36:07.368Z,2.60
2018-05-07T01:38:33.216Z,2.63
2018-05-07T01:40:59.039Z,2.60
2018-05-07T01:43:24.907Z,2.83
2018-05-07T01:45:50.754Z,2.43
2018-05-07T01:48:16.612Z,2.93
2018-05-07T01:53:35.254Z,2.80
2018-05-07T01:56:01.137Z,2.80
2018-05-07T01:58:27.004Z,2.80
2018-05-07T02:00:52.863Z,2.57
2018-05-07T02:03:18.728Z,2.77
2018-05-07T02:05:44.606Z,2.77
2018-05-07T02:08:10.460Z,2.93
2018-05-07T02:10:36.330Z,2.90
2018-05-07T02:13:02.205Z,2.40
2018-05-07T02:15:28.044Z,2.70
2018-05-07T02:17:53.916Z,2.67
2018-05-07T02:20:19.774Z,2.80
2018-05-07T02:22:45.647Z,2.70
2018-05-07T02:25:11.495Z,3.00
2018-05-07T02:27:37.341Z,2.70
2018-05-07T02:30:03.237Z,2.80
2018-05-07T02:32:29.098Z,2.50
2018-05-07T02:34:54.932Z,2.80
2018-05-07T02:37:20.810Z,3.00
2018-05-07T02:39:46.667Z,2.70
2018-05-07T02:42:12.515Z,2.73
2018-05-07T02:44:38.377Z,2.90
2018-05-07T02:47:04.240Z,2.53
2018-05-07T02:49:30.105Z,2.70
2018-05-07T02:51:55.964Z,2.47
2018-05-07T02:54:21.823Z,2.60
2018-05-07T02:56:47.704Z,2.87
2018-05-07T02:59:13.560Z,2.57
2018-05-07T03:01:39.405Z,2.63
2018-05-07T03:04:05.268Z,2.50
2018-05-07T03:06:31.136Z,3.00
2018-05-07T03:08:57.000Z,2.80
2018-05-07T03:11:22.874Z,2.60
2018-05-07T03:13:48.706Z,2.70
2018-05-07T03:16:14.556Z,2.83
2018-05-07T03:18:40.432Z,2.67
2018-05-07T03:21:06.293Z,2.47
2018-05-07T03:23:32.141Z,3.03
2018-05-07T03:25:58.004Z,2.97
2018-05-07T03:28:23.871Z,2.60
2018-05-07T03:30:49.741Z,2.77
2018-05-07T03:33:15.574Z,2.50
2018-05-07T03:35:41.436Z,2.53
2018-05-07T03:38:07.273Z,2.97
2018-05-07T03:40:33.223Z,3.20
2018-05-07T03:42:59.023Z,2.90
2018-05-07T03:45:24.863Z,3.30
2018-05-07T03:47:50.710Z,3.47
2018-05-07T03:50:16.545Z,2.83
2018-05-07T03:52:42.419Z,3.00
2018-05-07T03:55:08.366Z,2.97
2018-05-07T03:57:34.211Z,3.27
2018-05-07T04:00:00.071Z,3.00
2018-05-07T04:02:25.949Z,2.87
2018-05-07T04:04:51.817Z,2.87
2018-05-07T04:07:17.830Z,3.17
2018-05-07T04:09:43.672Z,3.17
2018-05-07T04:12:09.539Z,3.10
2018-05-07T04:14:35.401Z,2.97
2018-05-07T04:17:13.636Z,3.03
2018-05-07T04:19:51.782Z,3.30
2018-05-07T04:22:29.944Z,3.00
2018-05-07T04:24:55.805Z,3.23
2018-05-07T04:27:21.641Z,3.03
2018-05-07T04:29:47.513Z,3.10
2018-05-07T04:32:13.375Z,3.70
2018-05-07T04:34:39.226Z,3.37
2018-05-07T04:37:05.055Z,3.23
2018-05-07T04:39:30.920Z,3.70
2018-05-07T04:41:56.798Z,3.87
2018-05-07T04:44:22.670Z,3.37
2018-05-07T04:46:48.537Z,3.50
2018-05-07T04:49:14.383Z,3.90
2018-05-07T04:51:40.261Z,3.33
2018-05-07T04:54:06.112Z,3.30
2018-05-07T04:56:31.956Z,3.40
2018-05-07T04:58:57.811Z,3.27
2018-05-07T05:01:23.688Z,3.60
2018-05-07T05:03:49.542Z,3.67
2018-05-07T05:06:15.452Z,3.53
2018-05-07T05:08:41.276Z,3.20
2018-05-07T05:11:07.135Z,3.37
2018-05-07T05:13:33.007Z,3.43
2018-05-07T05:15:58.837Z,3.87
2018-05-07T05:18:24.734Z,3.60
2018-05-07T05:20:50.598Z,3.70
2018-05-07T05:23:16.497Z,3.83
2018-05-07T05:25:42.344Z,3.80
2018-05-07T05:28:08.248Z,4.00
2018-05-07T05:30:34.104Z,3.57
2018-05-07T05:32:59.952Z,4.00
2018-05-07T05:35:25.794Z,3.40
2018-05-07T05:37:51.645Z,3.27
2018-05-07T05:40:17.502Z,3.70
2018-05-07T05:42:43.357Z,3.50
2018-05-07T05:45:09.208Z,3.50
2018-05-07T05:47:35.055Z,3.57
2018-05-07T05:50:00.948Z,4.00
2018-05-07T05:52:26.815Z,3.50
2018-05-07T05:54:52.673Z,3.53
2018-05-07T05:57:18.529Z,3.27
2018-05-07T05:59:44.383Z,3.60
2018-05-07T06:02:10.227Z,3.30
2018-05-07T06:04:36.085Z,3.40
2018-05-07T06:07:01.972Z,3.80
2018-05-07T06:09:27.826Z,3.63
2018-05-07T06:11:53.726Z,4.10
2018-05-07T06:14:19.570Z,3.70
2018-05-07T06:16:45.421Z,3.63
2018-05-07T06:19:11.248Z,3.80
2018-05-07T06:21:37.159Z,3.73
2018-05-07T06:24:03.026Z,3.80
2018-05-07T06:26:28.904Z,3.60
2018-05-07T06:28:54.766Z,3.63
2018-05-07T06:31:20.641Z,3.67
2018-05-07T06:33:46.512Z,3.13
2018-05-07T06:36:12.357Z,3.50
2018-05-07T06:38:38.253Z,3.70
2018-05-07T06:41:04.117Z,3.30
2018-05-07T06:43:29.969Z,3.40
2018-05-07T06:45:55.904Z,3.20
2018-05-07T06:48:21.740Z,4.00
2018-05-07T06:50:47.655Z,3.30
2018-05-07T06:53:13.489Z,4.00
2018-05-07T06:55:39.353Z,4.57
2018-05-07T06:58:05.197Z,3.67
2018-05-07T07:00:31.073Z,3.33
2018-05-07T07:02:57.125Z,4.20
2018-05-07T07:05:22.845Z,3.70
2018-05-07T07:07:48.720Z,3.70
2018-05-07T07:10:14.571Z,3.30
2018-05-07T07:12:40.456Z,3.33
2018-05-07T07:15:06.355Z,3.40
2018-05-07T07:17:32.212Z,3.43
2018-05-07T07:19:58.099Z,3.47
2018-05-07T07:22:23.949Z,2.83
2018-05-07T07:24:49.879Z,3.23
2018-05-07T07:27:15.739Z,3.70
2018-05-07T07:29:41.615Z,3.20
2018-05-07T07:32:07.476Z,3.50
2018-05-07T07:34:33.368Z,3.20
2018-05-07T07:36:59.207Z,3.50
2018-05-07T07:39:25.100Z,3.60
2018-05-07T07:41:50.942Z,3.63
2018-05-07T07:44:16.811Z,3.60
2018-05-07T07:46:42.682Z,3.10
2018-05-07T07:49:08.536Z,3.60
2018-05-07T07:51:34.388Z,3.40
2018-05-07T07:54:00.228Z,2.67
2018-05-07T07:56:26.101Z,3.10
2018-05-07T07:58:51.934Z,3.57
2018-05-07T08:01:17.795Z,3.60
2018-05-07T08:03:43.644Z,3.40
2018-05-07T08:06:09.485Z,2.97
2018-05-07T08:08:35.325Z,3.40
2018-05-07T08:11:01.222Z,2.70
2018-05-07T08:13:27.075Z,3.33
2018-05-07T08:15:52.961Z,3.33
2018-05-07T08:18:18.845Z,3.33
2018-05-07T08:20:44.748Z,2.70
2018-05-07T08:23:10.587Z,3.17
2018-05-07T08:25:36.430Z,3.33
2018-05-07T08:28:02.271Z,3.03
2018-05-07T08:30:28.172Z,2.87
2018-05-07T08:32:53.993Z,3.10
2018-05-07T08:35:19.889Z,2.70
2018-05-07T08:37:45.747Z,3.10
2018-05-07T08:40:11.617Z,3.00
2018-05-07T08:42:37.476Z,2.87
2018-05-07T08:45:03.321Z,3.40
2018-05-07T08:47:29.164Z,3.70
2018-05-07T08:49:55.010Z,3.37
2018-05-07T08:52:20.892Z,3.20
2018-05-07T08:54:46.754Z,2.57
2018-05-07T08:57:12.610Z,3.00
2018-05-07T08:59:38.462Z,3.27
2018-05-07T09:02:04.347Z,3.00
2018-05-07T09:04:30.221Z,2.80
2018-05-07T09:06:56.072Z,2.93
2018-05-07T09:09:21.961Z,3.23
2018-05-07T09:11:47.824Z,2.70
2018-05-07T09:14:13.739Z,3.30
2018-05-07T09:16:39.591Z,3.70
2018-05-07T09:19:05.432Z,3.30
2018-05-07T09:21:31.283Z,3.00
2018-05-07T09:23:57.140Z,2.93
2018-05-07T09:26:22.978Z,2.80
2018-05-07T09:28:48.877Z,3.27
2018-05-07T09:31:14.765Z,2.93
2018-05-07T09:33:40.591Z,2.97
2018-05-07T09:36:06.464Z,2.33
2018-05-07T09:38:32.340Z,4.47
2018-05-07T09:40:58.201Z,2.53
2018-05-07T09:43:24.047Z,3.00
2018-05-07T09:45:49.897Z,2.73
2018-05-07T09:48:15.779Z,2.57
2018-05-07T09:50:41.654Z,2.87
2018-05-07T09:53:07.507Z,2.63
2018-05-07T09:55:33.354Z,2.87
2018-05-07T09:58:02.223Z,2.90
2018-05-07T10:00:34.041Z,2.90
2018-05-07T10:02:59.891Z,3.27
2018-05-07T10:05:25.752Z,2.90
2018-05-07T10:07:51.611Z,2.90
2018-05-07T10:10:17.467Z,3.07
2018-05-07T10:12:43.319Z,3.40
2018-05-07T10:15:09.213Z,3.40
2018-05-07T10:17:35.084Z,3.10
2018-05-07T10:20:00.936Z,3.00
2018-05-07T10:22:26.797Z,2.47
2018-05-07T10:24:52.651Z,2.67
2018-05-07T10:27:18.567Z,2.80
2018-05-07T10:29:44.451Z,2.60
2018-05-07T10:32:10.314Z,2.17
2018-05-07T10:34:36.167Z,3.07
2018-05-07T10:37:02.022Z,2.50
2018-05-07T10:39:28.009Z,2.60
2018-05-07T10:41:53.954Z,2.20
2018-05-07T10:44:19.822Z,2.60
2018-05-07T10:46:45.682Z,2.33
2018-05-07T10:49:11.595Z,2.47
2018-05-07T10:51:37.478Z,2.33
2018-05-07T10:54:03.447Z,2.40
2018-05-07T10:56:29.361Z,2.23
2018-05-07T10:58:55.248Z,1.90
2018-05-07T11:01:21.099Z,2.13
2018-05-07T11:03:46.946Z,2.20
2018-05-07T11:06:12.806Z,2.20
2018-05-07T11:08:38.660Z,2.80
2018-05-07T11:11:04.527Z,2.20
2018-05-07T11:13:30.369Z,2.07
2018-05-07T11:15:56.251Z,2.10
2018-05-07T11:18:22.081Z,2.13
2018-05-07T11:20:47.944Z,2.03
2018-05-07T11:23:13.781Z,2.05
2018-05-07T11:25:39.655Z,2.47
2018-05-07T11:28:05.507Z,2.22
2018-05-07T11:30:31.396Z,2.20
2018-05-07T11:32:57.234Z,2.10
2018-05-07T11:35:23.080Z,2.03
2018-05-07T11:37:48.921Z,2.15
2018-05-07T11:40:14.787Z,2.10
2018-05-07T11:42:40.639Z,2.10
2018-05-07T11:45:06.487Z,2.00
2018-05-07T11:47:32.409Z,2.87
2018-05-07T11:49:58.249Z,2.00
2018-05-07T11:52:24.127Z,2.00
2018-05-07T11:54:49.986Z,2.50
2018-05-07T11:57:15.879Z,1.83
2018-05-07T11:59:41.738Z,1.80
2018-05-07T12:02:07.588Z,1.92
2018-05-07T12:04:33.444Z,1.77
2018-05-07T12:06:59.274Z,1.77
2018-05-07T12:09:25.175Z,1.67
2018-05-07T12:11:51.022Z,1.40
2018-05-07T12:14:16.914Z,1.95
2018-05-07T12:16:42.766Z,2.40
2018-05-07T12:19:08.631Z,2.20
2018-05-07T12:21:34.488Z,2.00
2018-05-07T12:24:00.403Z,1.80
2018-05-07T12:26:26.260Z,1.92
2018-05-07T12:28:52.146Z,2.30
2018-05-07T12:31:18.035Z,1.85
2018-05-07T12:33:43.889Z,1.80
2018-05-07T12:36:09.765Z,2.00
2018-05-07T12:38:35.615Z,1.90
2018-05-07T12:41:01.486Z,1.70
2018-05-07T12:43:27.337Z,1.80
2018-05-07T12:45:53.199Z,2.00
2018-05-07T12:48:19.057Z,1.92
2018-05-07T12:50:45.034Z,1.60
2018-05-07T12:53:10.889Z,1.90
2018-05-07T12:55:36.735Z,2.08
2018-05-07T12:58:02.630Z,2.03
2018-05-07T13:00:28.468Z,1.85
2018-05-07T13:02:54.326Z,2.10
2018-05-07T13:05:20.222Z,1.60
2018-05-07T13:07:46.081Z,2.00
2018-05-07T13:10:11.933Z,1.80
2018-05-07T13:12:37.790Z,1.73
2018-05-07T13:15:03.669Z,1.83
2018-05-07T13:17:29.537Z,1.77
2018-05-07T13:19:55.394Z,1.98
2018-05-07T13:22:21.313Z,2.00
2018-05-07T13:24:47.183Z,1.70
2018-05-07T13:27:13.069Z,1.98
2018-05-07T13:29:38.951Z,1.67
2018-05-07T13:32:04.835Z,1.60
2018-05-07T13:34:30.692Z,1.50
2018-05-07T13:36:56.565Z,1.70
2018-05-07T13:39:22.423Z,1.52
2018-05-07T13:41:48.266Z,1.58
2018-05-07T13:44:14.141Z,1.80
2018-05-07T13:46:39.988Z,1.60
2018-05-07T13:49:05.871Z,1.75
2018-05-07T13:51:31.744Z,1.70
2018-05-07T13:53:57.626Z,1.83
2018-05-07T13:56:23.505Z,1.80
2018-05-07T13:58:49.379Z,2.00
2018-05-07T14:01:15.247Z,1.58
2018-05-07T14:03:41.122Z,2.28
2018-05-07T14:06:06.999Z,1.80
2018-05-07T14:08:32.958Z,1.58
2018-05-07T14:10:58.769Z,1.80
2018-05-07T14:13:24.615Z,1.62
2018-05-07T14:15:50.491Z,1.67
2018-05-07T14:18:16.373Z,2.10
2018-05-07T14:20:42.256Z,1.60
2018-05-07T14:23:08.102Z,1.92
2018-05-07T14:25:33.969Z,2.00
2018-05-07T14:27:59.837Z,2.00
2018-05-07T14:30:25.703Z,1.90
2018-05-07T14:32:51.581Z,1.70
2018-05-07T14:35:17.471Z,2.22
2018-05-07T14:37:43.332Z,1.98
2018-05-07T14:40:09.201Z,2.08
2018-05-07T14:42:35.104Z,2.08
2018-05-07T14:45:00.984Z,1.80
2018-05-07T14:47:26.850Z,1.60
2018-05-07T14:49:52.700Z,1.67
2018-05-07T14:52:18.549Z,1.90
2018-05-07T14:54:44.411Z,1.80
2018-05-07T14:57:10.284Z,2.30
2018-05-07T14:59:36.162Z,1.92
2018-05-07T15:02:02.026Z,2.00
2018-05-07T15:04:27.895Z,1.73
2018-05-07T15:06:53.766Z,2.00
2018-05-07T15:09:19.664Z,1.90
2018-05-07T15:11:45.524Z,1.80
2018-05-07T15:14:22.522Z,1.87
2018-05-07T15:16:48.371Z,1.90
2018-05-07T15:19:14.251Z,1.85
2018-05-07T15:21:40.148Z,1.80
2018-05-07T15:24:05.972Z,1.67
2018-05-07T15:26:31.833Z,2.15
2018-05-07T15:28:57.709Z,1.80
2018-05-07T15:31:23.588Z,1.90
2018-05-07T15:33:49.432Z,1.87
2018-05-07T15:36:15.316Z,2.08
2018-05-07T15:38:41.199Z,1.87
2018-05-07T15:41:07.603Z,1.80
2018-05-07T15:43:33.445Z,1.83
2018-05-07T15:45:59.289Z,1.98
2018-05-07T15:48:25.150Z,1.80
2018-05-07T15:50:51.055Z,2.12
2018-05-07T15:53:16.892Z,2.08
2018-05-07T15:55:42.754Z,2.33
2018-05-07T15:58:08.662Z,2.53
2018-05-07T16:00:34.529Z,2.03
2018-05-07T16:03:00.492Z,2.00
2018-05-07T16:05:26.299Z,2.00
2018-05-07T16:07:52.175Z,1.70
2018-05-07T16:10:18.259Z,1.90
2018-05-07T16:12:44.131Z,2.00
2018-05-07T16:15:10.050Z,1.80
2018-05-07T16:17:35.931Z,1.90
2018-05-07T16:20:01.830Z,1.95
2018-05-07T16:22:27.666Z,1.87
2018-05-07T16:24:53.529Z,2.05
2018-05-07T16:27:19.382Z,1.90
2018-05-07T16:29:45.273Z,1.80
2018-05-07T16:32:11.156Z,1.90
2018-05-07T16:34:37.076Z,2.10
2018-05-07T16:37:02.942Z,2.00
2018-05-07T16:39:28.806Z,1.77
2018-05-07T16:41:54.681Z,2.20
2018-05-07T16:44:20.582Z,1.95
2018-05-07T16:46:46.462Z,2.03
2018-05-07T16:49:12.319Z,1.70
2018-05-07T16:51:38.189Z,1.80
2018-05-07T16:54:04.041Z,2.00
2018-05-07T16:56:29.943Z,2.00
2018-05-07T16:58:55.806Z,2.50
2018-05-07T17:01:21.661Z,1.98
2018-05-07T17:03:47.523Z,1.77
2018-05-07T17:06:13.401Z,1.73
2018-05-07T17:08:39.263Z,1.67
2018-05-07T17:11:05.316Z,2.10
2018-05-07T17:13:31.081Z,1.90
2018-05-07T17:15:56.939Z,1.87
2018-05-07T17:18:22.805Z,2.00
2018-05-07T17:20:48.677Z,1.87
2018-05-07T17:23:14.579Z,2.00
2018-05-07T17:25:40.470Z,3.60
2018-05-07T17:28:06.382Z,2.25
2018-05-07T17:30:32.289Z,3.00
2018-05-07T17:32:58.194Z,2.60
2018-05-07T17:35:24.146Z,2.50
2018-05-07T17:37:50.039Z,2.45
2018-05-07T17:40:15.948Z,1.90
2018-05-07T17:42:41.818Z,2.00
2018-05-07T17:45:19.987Z,2.40
2018-05-07T17:50:45.843Z,2.20
2018-05-07T17:53:11.753Z,1.98
2018-05-07T17:55:37.654Z,1.73
2018-05-07T17:58:03.557Z,1.75
2018-05-07T18:00:29.486Z,2.00
2018-05-07T18:02:55.405Z,1.70
2018-05-07T18:05:21.350Z,1.60
2018-05-07T18:07:47.213Z,1.83
2018-05-07T18:10:13.124Z,1.70
2018-05-07T18:12:39.017Z,1.77
2018-05-07T18:15:05.028Z,2.00
2018-05-07T18:17:31.140Z,1.93
2018-05-07T18:19:56.862Z,1.85
2018-05-07T18:22:22.753Z,2.10
2018-05-07T18:24:48.743Z,1.73
2018-05-07T18:27:14.710Z,1.73
2018-05-07T18:29:40.609Z,1.77
2018-05-07T18:32:06.575Z,1.87
2018-05-07T18:34:32.507Z,1.80
2018-05-07T18:36:58.449Z,2.03
2018-05-07T18:39:24.341Z,1.83
2018-05-07T18:41:50.217Z,2.00
2018-05-07T18:44:16.102Z,1.67
2018-05-07T18:46:42.003Z,1.93
2018-05-07T18:49:07.868Z,1.73
2018-05-07T18:51:33.780Z,2.10
2018-05-07T18:53:59.742Z,1.60
2018-05-07T18:56:25.642Z,2.03
2018-05-07T18:58:51.628Z,1.80
2018-05-07T19:01:17.520Z,1.80
2018-05-07T19:03:43.473Z,2.10
2018-05-07T19:06:09.410Z,1.90
2018-05-07T19:08:35.354Z,1.87
2018-05-07T19:11:01.232Z,2.23
2018-05-07T19:13:27.191Z,1.80
2018-05-07T19:15:53.122Z,2.20
2018-05-07T19:18:19.025Z,2.10
2018-05-07T19:20:45.004Z,1.97
2018-05-07T19:23:10.901Z,2.10
2018-05-07T19:25:36.876Z,2.40
2018-05-07T19:28:02.834Z,2.00
2018-05-07T19:30:28.779Z,2.23
2018-05-07T19:32:54.692Z,2.57
2018-05-07T19:35:20.587Z,2.30
2018-05-07T19:37:46.671Z,2.30
2018-05-07T19:40:12.630Z,2.73
2018-05-07T19:42:38.467Z,2.60
2018-05-07T19:45:04.443Z,2.67
2018-05-07T19:47:30.319Z,2.70
2018-05-07T19:49:56.225Z,2.57
2018-05-07T19:52:22.094Z,2.70
2018-05-07T19:54:48.559Z,2.50
2018-05-07T19:57:14.449Z,2.83
2018-05-07T19:59:40.367Z,2.73
2018-05-07T20:02:06.321Z,2.40
2018-05-07T20:04:32.200Z,2.67
2018-05-07T20:06:58.141Z,2.30
2018-05-07T20:09:24.369Z,2.33
2018-05-07T20:11:50.323Z,2.20
2018-05-07T20:14:16.244Z,1.90
2018-05-07T20:16:42.159Z,1.90
2018-05-07T20:19:08.079Z,2.37
2018-05-07T20:21:34.364Z,2.07
2018-05-07T20:24:00.300Z,2.10
2018-05-07T20:26:26.170Z,2.10
2018-05-07T20:28:52.177Z,2.27
2018-05-07T20:31:18.100Z,2.33
2018-05-07T20:33:44.045Z,2.30
2018-05-07T20:36:09.958Z,2.20
2018-05-07T20:38:35.885Z,2.50
2018-05-07T20:41:01.913Z,2.27
2018-05-07T20:43:27.820Z,2.60
2018-05-07T20:45:53.701Z,2.40
2018-05-07T20:48:19.613Z,2.30
2018-05-07T20:50:45.546Z,2.40
2018-05-07T20:53:11.404Z,2.50
2018-05-07T20:55:37.289Z,2.67
2018-05-07T20:58:03.232Z,2.50
2018-05-07T21:00:29.154Z,2.33
2018-05-07T21:02:55.010Z,2.23
2018-05-07T21:05:20.916Z,2.40
2018-05-07T21:07:46.840Z,2.60
2018-05-07T21:10:12.714Z,2.53
2018-05-07T21:12:38.613Z,2.40
2018-05-07T21:15:04.508Z,2.57
2018-05-07T21:17:30.384Z,2.30
2018-05-07T21:19:56.226Z,2.50
2018-05-07T21:22:22.142Z,2.33
2018-05-07T21:24:48.021Z,2.20
2018-05-07T21:27:13.892Z,2.40
2018-05-07T21:29:39.753Z,2.20
2018-05-07T21:32:05.632Z,2.30
2018-05-07T21:34:31.487Z,2.63
2018-05-07T21:36:57.357Z,2.20
2018-05-07T21:39:23.222Z,2.17
2018-05-07T21:41:49.073Z,2.53
2018-05-07T21:44:14.930Z,2.20
2018-05-07T21:46:40.773Z,2.27
2018-05-07T21:49:06.629Z,2.40
2018-05-07T21:51:32.470Z,2.40
2018-05-07T21:53:58.317Z,2.10
2018-05-07T21:56:24.141Z,2.70
2018-05-07T21:58:49.972Z,2.43
2018-05-07T22:01:15.823Z,2.20
2018-05-07T22:03:41.665Z,2.47
2018-05-07T22:06:07.520Z,2.30
2018-05-07T22:08:33.373Z,2.60
2018-05-07T22:10:59.233Z,2.60
2018-05-07T22:13:25.100Z,2.50
2018-05-07T22:15:50.979Z,2.63
2018-05-07T22:18:16.822Z,2.70
2018-05-07T22:20:42.684Z,2.50
2018-05-07T22:23:08.570Z,2.40
2018-05-07T22:25:34.411Z,2.70
2018-05-07T22:28:00.261Z,2.60
2018-05-07T22:30:26.137Z,2.40
2018-05-07T22:32:51.982Z,2.63
2018-05-07T22:35:17.833Z,2.30
2018-05-07T22:37:43.713Z,2.30
2018-05-07T22:40:09.578Z,2.10
2018-05-07T22:42:35.832Z,2.00
2018-05-07T22:45:01.670Z,2.23
2018-05-07T22:47:27.583Z,2.50
2018-05-07T22:49:53.426Z,2.40
2018-05-07T22:52:19.304Z,2.10
2018-05-07T22:54:45.178Z,2.60
2018-05-07T22:57:11.033Z,2.07
2018-05-07T22:59:36.905Z,2.53
2018-05-07T23:02:02.751Z,2.40
2018-05-07T23:04:28.583Z,2.60
2018-05-07T23:06:54.424Z,2.70
2018-05-07T23:09:20.272Z,2.80
2018-05-07T23:11:46.117Z,2.40
2018-05-07T23:14:11.987Z,2.23
2018-05-07T23:16:37.826Z,2.37
2018-05-07T23:19:03.701Z,2.50
2018-05-07T23:21:29.539Z,2.60
2018-05-07T23:23:55.373Z,2.50
2018-05-07T23:26:21.224Z,2.13
2018-05-07T23:28:47.057Z,2.53
2018-05-07T23:31:12.913Z,2.10
2018-05-07T23:33:38.794Z,2.33
2018-05-07T23:36:04.668Z,2.30
2018-05-07T23:38:30.522Z,2.47
2018-05-07T23:40:56.375Z,2.10
2018-05-07T23:43:22.231Z,2.17
2018-05-07T23:45:48.134Z,2.20
2018-05-07T23:48:13.974Z,2.23
2018-05-07T23:50:39.844Z,2.30
2018-05-07T23:53:05.695Z,2.40
2018-05-07T23:55:31.552Z,2.30
2018-05-07T23:57:57.392Z,2.33
